createdAt,value
2018-02-24T14:28:46.738Z,3.04
2018-02-24T14:31:14.158Z,2.85
2018-02-24T14:33:41.578Z,2.66
2018-02-24T14:36:09.001Z,2.63
2018-02-24T14:38:36.435Z,2.65
2018-02-24T14:41:03.883Z,2.61
2018-02-24T14:43:31.316Z,2.83
2018-02-24T14:45:58.725Z,2.98
2018-02-24T14:48:26.838Z,2.96
2018-02-24T14:50:54.262Z,2.96
2018-02-24T14:53:21.694Z,3.05
2018-02-24T14:55:49.109Z,2.89
2018-02-24T14:58:16.543Z,2.79
2018-02-24T15:00:44.104Z,2.68
2018-02-24T15:03:11.525Z,2.52
2018-02-24T15:05:38.942Z,2.33
2018-02-24T15:08:06.399Z,2.07
2018-02-24T15:10:33.878Z,2.07
2018-02-24T15:13:01.297Z,1.87
2018-02-24T15:15:28.719Z,1.78
2018-02-24T15:17:56.154Z,1.73
2018-02-24T15:20:23.586Z,1.64
2018-02-24T15:22:51.060Z,1.54
2018-02-24T15:25:18.543Z,1.43
2018-02-24T15:27:46.091Z,1.31
2018-02-24T15:30:13.584Z,1.24
2018-02-24T15:32:41.068Z,1.18
2018-02-24T15:35:08.588Z,1.14
2018-02-24T15:37:36.051Z,1.05
2018-02-24T15:40:03.519Z,0.93
2018-02-24T15:42:31.018Z,0.91
2018-02-24T15:44:58.523Z,0.79
2018-02-24T15:47:26.002Z,0.73
2018-02-24T15:49:53.491Z,0.62
2018-02-24T15:52:20.988Z,0.56
2018-02-24T15:54:48.472Z,0.55
2018-02-24T15:57:15.943Z,0.50
2018-02-24T15:59:43.396Z,0.49
2018-02-24T16:02:10.891Z,0.45
2018-02-24T16:04:38.433Z,0.37
2018-02-24T16:07:12.230Z,0.40
2018-02-24T16:09:45.855Z,0.36
2018-02-24T16:12:19.685Z,0.33
2018-02-24T16:14:53.400Z,0.27
2018-02-24T16:17:27.232Z,0.23
2018-02-24T16:20:01.000Z,0.21
2018-02-24T16:22:34.689Z,0.15
2018-02-24T16:25:08.482Z,0.14
2018-02-24T16:27:42.327Z,0.09
2018-02-24T16:30:16.007Z,0.04
2018-02-24T16:32:49.695Z,-0.04
2018-02-24T16:35:23.533Z,-0.12
2018-02-24T16:37:57.182Z,-0.13
2018-02-24T16:40:30.911Z,-0.17
2018-02-24T16:43:04.789Z,-0.17
2018-02-24T16:45:38.486Z,-0.11
2018-02-24T16:48:12.302Z,-0.19
2018-02-24T16:50:46.101Z,-0.19
2018-02-24T16:53:19.760Z,-0.25
2018-02-24T16:55:53.573Z,-0.31
2018-02-24T16:58:27.381Z,-0.33
2018-02-24T17:01:01.170Z,-0.39
2018-02-24T17:03:34.992Z,-0.41
2018-02-24T17:06:08.871Z,-0.44
2018-02-24T17:08:42.636Z,-0.39
2018-02-24T17:11:16.350Z,-0.43
2018-02-24T17:13:50.082Z,-0.48
2018-02-24T17:16:23.877Z,-0.55
2018-02-24T17:18:57.561Z,-0.53
2018-02-24T17:21:31.374Z,-0.52
2018-02-24T17:24:05.146Z,-0.53
2018-02-24T17:26:38.920Z,-0.52
2018-02-24T17:29:12.604Z,-0.65
2018-02-24T17:31:46.343Z,-0.75
2018-02-24T17:34:20.244Z,-0.83
2018-02-24T17:36:54.141Z,-0.89
2018-02-24T17:39:27.891Z,-0.81
2018-02-24T17:42:01.612Z,-0.75
2018-02-24T17:44:35.362Z,-0.71
2018-02-24T17:47:19.453Z,-0.77
2018-02-24T17:49:53.266Z,-0.84
2018-02-24T17:52:26.993Z,-0.87
2018-02-24T17:55:00.987Z,-0.85
2018-02-24T17:57:34.682Z,-0.97
2018-02-24T18:00:08.543Z,-1.06
2018-02-24T18:02:42.477Z,-1.02
2018-02-24T18:05:16.215Z,-1.08
2018-02-24T18:07:49.946Z,-1.12
2018-02-24T18:10:23.870Z,-1.20
2018-02-24T18:12:57.598Z,-1.21
2018-02-24T18:15:31.581Z,-1.23
2018-02-24T18:18:05.469Z,-1.18
2018-02-24T18:20:39.234Z,-1.22
2018-02-24T18:23:12.793Z,-1.26
2018-02-24T18:25:46.486Z,-1.26
2018-02-24T18:28:20.349Z,-1.31
2018-02-24T18:30:54.143Z,-1.35
2018-02-24T18:33:27.695Z,-1.43
2018-02-24T18:36:01.652Z,-1.43
2018-02-24T18:38:35.426Z,-1.41
2018-02-24T18:41:09.435Z,-1.46
2018-02-24T18:43:43.291Z,-1.48
2018-02-24T18:46:16.994Z,-1.51
2018-02-24T18:48:50.633Z,-1.43
2018-02-24T18:51:24.372Z,-1.44
2018-02-24T18:53:58.206Z,-1.42
2018-02-24T18:56:31.958Z,-1.42
2018-02-24T18:59:05.751Z,-1.45
2018-02-24T19:01:39.623Z,-1.42
2018-02-24T19:04:13.450Z,-1.52
2018-02-24T19:06:47.209Z,-1.58
2018-02-24T19:09:21.043Z,-1.61
2018-02-24T19:11:55.019Z,-1.64
2018-02-24T19:14:28.748Z,-1.61
2018-02-24T19:17:02.617Z,-1.66
2018-02-24T19:19:36.319Z,-1.71
2018-02-24T19:22:10.207Z,-1.68
2018-02-24T19:24:43.899Z,-1.72
2018-02-24T19:27:17.721Z,-1.75
2018-02-24T19:29:51.531Z,-1.70
2018-02-24T19:32:25.358Z,-1.63
2018-02-24T19:34:59.158Z,-1.63
2018-02-24T19:37:32.978Z,-1.61
2018-02-24T19:40:06.640Z,-1.70
2018-02-24T19:42:40.417Z,-1.63
2018-02-24T19:45:14.058Z,-1.63
2018-02-24T19:47:47.802Z,-1.67
2018-02-24T19:50:21.696Z,-1.74
2018-02-24T19:52:55.611Z,-1.78
2018-02-24T19:55:29.438Z,-1.88
2018-02-24T19:58:03.253Z,-1.96
2018-02-24T20:00:36.976Z,-1.84
2018-02-24T20:03:10.673Z,-1.85
2018-02-24T20:05:44.578Z,-1.95
2018-02-24T20:08:18.305Z,-1.99
2018-02-24T20:10:51.997Z,-2.01
2018-02-24T20:13:25.858Z,-2.07
2018-02-24T20:15:59.518Z,-1.94
2018-02-24T20:18:33.222Z,-2.10
2018-02-24T20:21:06.895Z,-2.14
2018-02-24T20:23:40.619Z,-2.05
2018-02-24T20:26:14.347Z,-2.07
2018-02-24T20:28:48.040Z,-2.15
2018-02-24T20:31:21.794Z,-2.25
2018-02-24T20:33:55.525Z,-2.19
2018-02-24T20:36:29.242Z,-2.24
2018-02-24T20:39:03.049Z,-2.36
2018-02-24T20:41:36.678Z,-2.30
2018-02-24T20:44:10.576Z,-2.19
2018-02-24T20:46:44.286Z,-2.23
2018-02-24T20:49:17.973Z,-2.35
2018-02-24T20:51:51.665Z,-2.35
2018-02-24T20:54:25.459Z,-2.36
2018-02-24T20:56:59.343Z,-2.31
2018-02-24T20:59:33.622Z,-2.28
2018-02-24T21:02:07.424Z,-2.37
2018-02-24T21:04:41.179Z,-2.39
2018-02-24T21:07:14.883Z,-2.46
2018-02-24T21:09:48.681Z,-2.56
2018-02-24T21:12:22.354Z,-2.47
2018-02-24T21:14:56.249Z,-2.45
2018-02-24T21:17:30.015Z,-2.47
2018-02-24T21:20:03.886Z,-2.59
2018-02-24T21:22:37.646Z,-2.58
2018-02-24T21:25:11.370Z,-2.66
2018-02-24T21:27:45.194Z,-2.63
2018-02-24T21:30:18.913Z,-2.63
2018-02-24T21:32:52.558Z,-2.68
2018-02-24T21:35:26.309Z,-2.60
2018-02-24T21:37:59.992Z,-2.63
2018-02-24T21:40:34.520Z,-2.66
2018-02-24T21:43:09.280Z,-2.76
2018-02-24T21:45:42.967Z,-2.81
2018-02-24T21:48:16.722Z,-2.83
2018-02-24T21:50:50.533Z,-2.87
2018-02-24T21:53:24.254Z,-2.87
2018-02-24T21:55:57.999Z,-2.90
2018-02-24T21:58:31.823Z,-2.94
2018-02-24T22:01:05.632Z,-2.86
2018-02-24T22:03:39.537Z,-2.88
2018-02-24T22:06:13.384Z,-2.92
2018-02-24T22:08:47.078Z,-2.93
2018-02-24T22:11:20.811Z,-2.95
2018-02-24T22:13:54.506Z,-2.88
2018-02-24T22:16:28.263Z,-2.89
2018-02-24T22:19:02.222Z,-2.98
2018-02-24T22:21:36.046Z,-3.06
2018-02-24T22:24:09.756Z,-3.07
2018-02-24T22:26:43.715Z,-3.05
2018-02-24T22:29:17.544Z,-3.10
2018-02-24T22:31:51.247Z,-3.03
2018-02-24T22:34:25.078Z,-3.11
2018-02-24T22:36:58.775Z,-3.03
2018-02-24T22:39:32.450Z,-3.11
2018-02-24T22:42:06.333Z,-3.23
2018-02-24T22:44:40.213Z,-3.27
2018-02-24T22:47:14.182Z,-3.36
2018-02-24T22:49:48.021Z,-3.38
2018-02-24T22:52:21.915Z,-3.27
2018-02-24T22:54:55.759Z,-3.31
2018-02-24T22:57:29.512Z,-3.26
2018-02-24T23:00:03.389Z,-3.33
2018-02-24T23:02:37.266Z,-3.32
2018-02-24T23:05:11.176Z,-3.31
2018-02-24T23:07:45.078Z,-3.41
2018-02-24T23:10:18.798Z,-3.41
2018-02-24T23:12:52.731Z,-3.49
2018-02-24T23:15:26.587Z,-3.50
2018-02-24T23:18:00.374Z,-3.51
2018-02-24T23:20:34.431Z,-3.61
2018-02-24T23:23:08.338Z,-3.63
2018-02-24T23:25:42.084Z,-3.53
2018-02-24T23:28:15.812Z,-3.53
2018-02-24T23:30:49.716Z,-3.51
2018-02-24T23:33:23.502Z,-3.54
2018-02-24T23:35:57.212Z,-3.60
2018-02-24T23:38:31.180Z,-3.69
2018-02-24T23:41:05.016Z,-3.72
2018-02-24T23:43:38.923Z,-3.74
2018-02-24T23:46:12.830Z,-3.80
2018-02-24T23:48:46.592Z,-3.81
2018-02-24T23:51:20.362Z,-3.77
2018-02-24T23:53:54.251Z,-3.82
2018-02-24T23:56:27.976Z,-3.88
2018-02-24T23:59:01.810Z,-3.95
